sensor_id;sensor_type;location;lat;lon;timestamp;P1;durP1;ratioP1;P2;durP2;ratioP2
57327;SDS011;43162;51.040;18.244;2023-06-26T00:01:23;8.40;;;5.30;;
57327;SDS011;43162;51.040;18.244;2023-06-26T00:03:48;10.10;;;5.50;;
57327;SDS011;43162;51.040;18.244;2023-06-26T00:06:14;8.20;;;5.80;;
57327;SDS011;43162;51.040;18.244;2023-06-26T00:08:40;9.90;;;5.90;;
57327;SDS011;43162;51.040;18.244;2023-06-26T00:11:05;11.50;;;6.80;;
57327;SDS011;43162;51.040;18.244;2023-06-26T00:13:31;11.00;;;5.50;;
57327;SDS011;43162;51.040;18.244;2023-06-26T00:15:56;12.40;;;6.80;;
57327;SDS011;43162;51.040;18.244;2023-06-26T00:18:22;11.00;;;7.50;;
57327;SDS011;43162;51.040;18.244;2023-06-26T00:20:48;13.50;;;6.60;;
57327;SDS011;43162;51.040;18.244;2023-06-26T00:23:15;11.20;;;6.20;;
57327;SDS011;43162;51.040;18.244;2023-06-26T00:25:42;7.40;;;5.90;;
57327;SDS011;43162;51.040;18.244;2023-06-26T00:28:07;10.30;;;6.10;;
57327;SDS011;43162;51.040;18.244;2023-06-26T00:30:33;10.60;;;6.10;;
57327;SDS011;43162;51.040;18.244;2023-06-26T00:32:58;8.10;;;5.90;;
57327;SDS011;43162;51.040;18.244;2023-06-26T00:35:24;14.80;;;6.20;;
57327;SDS011;43162;51.040;18.244;2023-06-26T00:37:49;11.70;;;6.20;;
57327;SDS011;43162;51.040;18.244;2023-06-26T00:40:16;8.90;;;5.60;;
57327;SDS011;43162;51.040;18.244;2023-06-26T00:42:41;8.50;;;4.80;;
57327;SDS011;43162;51.040;18.244;2023-06-26T00:45:07;10.90;;;6.10;;
57327;SDS011;43162;51.040;18.244;2023-06-26T00:47:33;11.00;;;5.70;;
57327;SDS011;43162;51.040;18.244;2023-06-26T00:49:58;8.00;;;5.80;;
57327;SDS011;43162;51.040;18.244;2023-06-26T00:52:24;7.50;;;5.90;;
57327;SDS011;43162;51.040;18.244;2023-06-26T00:54:49;7.80;;;5.60;;
57327;SDS011;43162;51.040;18.244;2023-06-26T00:57:16;10.50;;;6.70;;
57327;SDS011;43162;51.040;18.244;2023-06-26T00:59:42;10.10;;;7.30;;
57327;SDS011;43162;51.040;18.244;2023-06-26T01:02:08;7.90;;;6.40;;
57327;SDS011;43162;51.040;18.244;2023-06-26T01:04:35;9.80;;;6.60;;
57327;SDS011;43162;51.040;18.244;2023-06-26T01:07:00;9.60;;;7.10;;
57327;SDS011;43162;51.040;18.244;2023-06-26T01:09:26;11.00;;;6.60;;
57327;SDS011;43162;51.040;18.244;2023-06-26T01:11:52;12.60;;;7.30;;
57327;SDS011;43162;51.040;18.244;2023-06-26T01:14:18;11.10;;;6.90;;
57327;SDS011;43162;51.040;18.244;2023-06-26T01:16:43;11.50;;;7.40;;
57327;SDS011;43162;51.040;18.244;2023-06-26T01:19:20;13.90;;;8.80;;
57327;SDS011;43162;51.040;18.244;2023-06-26T01:21:50;14.40;;;8.00;;
57327;SDS011;43162;51.040;18.244;2023-06-26T01:24:17;13.20;;;8.60;;
57327;SDS011;43162;51.040;18.244;2023-06-26T01:26:46;12.40;;;8.30;;
57327;SDS011;43162;51.040;18.244;2023-06-26T01:29:14;14.30;;;8.10;;
57327;SDS011;43162;51.040;18.244;2023-06-26T01:31:40;18.00;;;8.50;;
57327;SDS011;43162;51.040;18.244;2023-06-26T01:34:06;13.20;;;8.80;;
57327;SDS011;43162;51.040;18.244;2023-06-26T01:36:32;14.00;;;8.10;;
57327;SDS011;43162;51.040;18.244;2023-06-26T01:38:57;12.50;;;8.50;;
57327;SDS011;43162;51.040;18.244;2023-06-26T01:41:23;12.70;;;7.90;;
57327;SDS011;43162;51.040;18.244;2023-06-26T01:49:18;13.20;;;7.40;;
57327;SDS011;43162;51.040;18.244;2023-06-26T01:51:47;15.70;;;7.70;;
57327;SDS011;43162;51.040;18.244;2023-06-26T01:54:17;17.40;;;7.80;;
57327;SDS011;43162;51.040;18.244;2023-06-26T01:56:43;12.90;;;6.80;;
57327;SDS011;43162;51.040;18.244;2023-06-26T01:59:10;13.30;;;7.40;;
57327;SDS011;43162;51.040;18.244;2023-06-26T02:01:37;16.10;;;7.60;;
57327;SDS011;43162;51.040;18.244;2023-06-26T02:04:02;13.90;;;8.80;;
57327;SDS011;43162;51.040;18.244;2023-06-26T02:06:27;12.10;;;7.20;;
57327;SDS011;43162;51.040;18.244;2023-06-26T02:08:53;11.30;;;8.10;;
57327;SDS011;43162;51.040;18.244;2023-06-26T02:11:22;11.10;;;7.10;;
57327;SDS011;43162;51.040;18.244;2023-06-26T02:13:47;13.60;;;7.50;;
57327;SDS011;43162;51.040;18.244;2023-06-26T02:16:13;15.30;;;8.00;;
57327;SDS011;43162;51.040;18.244;2023-06-26T02:18:38;15.80;;;7.90;;
57327;SDS011;43162;51.040;18.244;2023-06-26T02:21:04;17.60;;;7.80;;
57327;SDS011;43162;51.040;18.244;2023-06-26T02:23:29;13.80;;;7.60;;
57327;SDS011;43162;51.040;18.244;2023-06-26T02:25:55;15.20;;;8.50;;
57327;SDS011;43162;51.040;18.244;2023-06-26T02:28:20;12.10;;;8.30;;
57327;SDS011;43162;51.040;18.244;2023-06-26T02:30:46;16.70;;;8.40;;
57327;SDS011;43162;51.040;18.244;2023-06-26T02:33:11;16.60;;;8.70;;
57327;SDS011;43162;51.040;18.244;2023-06-26T02:35:37;16.70;;;8.20;;
57327;SDS011;43162;51.040;18.244;2023-06-26T02:38:02;18.50;;;8.50;;
57327;SDS011;43162;51.040;18.244;2023-06-26T02:40:28;21.10;;;8.40;;
57327;SDS011;43162;51.040;18.244;2023-06-26T02:42:53;18.50;;;8.50;;
57327;SDS011;43162;51.040;18.244;2023-06-26T02:45:19;15.50;;;7.80;;
57327;SDS011;43162;51.040;18.244;2023-06-26T02:47:44;16.90;;;8.60;;
57327;SDS011;43162;51.040;18.244;2023-06-26T02:50:10;21.30;;;8.30;;
57327;SDS011;43162;51.040;18.244;2023-06-26T02:52:35;14.60;;;8.60;;
57327;SDS011;43162;51.040;18.244;2023-06-26T02:55:01;18.60;;;8.10;;
57327;SDS011;43162;51.040;18.244;2023-06-26T02:57:27;13.60;;;9.00;;
57327;SDS011;43162;51.040;18.244;2023-06-26T02:59:52;17.10;;;9.70;;
57327;SDS011;43162;51.040;18.244;2023-06-26T03:02:18;15.90;;;8.50;;
57327;SDS011;43162;51.040;18.244;2023-06-26T03:04:43;13.50;;;8.60;;
57327;SDS011;43162;51.040;18.244;2023-06-26T03:07:09;20.30;;;10.20;;
57327;SDS011;43162;51.040;18.244;2023-06-26T03:09:34;16.90;;;8.70;;
57327;SDS011;43162;51.040;18.244;2023-06-26T03:11:59;16.40;;;9.20;;
57327;SDS011;43162;51.040;18.244;2023-06-26T03:14:25;18.40;;;9.30;;
57327;SDS011;43162;51.040;18.244;2023-06-26T03:16:52;20.30;;;8.80;;
57327;SDS011;43162;51.040;18.244;2023-06-26T03:19:18;16.80;;;9.70;;
57327;SDS011;43162;51.040;18.244;2023-06-26T03:21:44;16.40;;;9.40;;
57327;SDS011;43162;51.040;18.244;2023-06-26T03:24:09;14.60;;;8.70;;
57327;SDS011;43162;51.040;18.244;2023-06-26T03:26:35;20.90;;;9.40;;
57327;SDS011;43162;51.040;18.244;2023-06-26T03:29:00;18.20;;;8.80;;
57327;SDS011;43162;51.040;18.244;2023-06-26T03:31:26;11.30;;;8.90;;
57327;SDS011;43162;51.040;18.244;2023-06-26T03:33:51;19.80;;;8.60;;
57327;SDS011;43162;51.040;18.244;2023-06-26T03:36:17;13.70;;;9.40;;
57327;SDS011;43162;51.040;18.244;2023-06-26T03:38:43;14.40;;;8.20;;
57327;SDS011;43162;51.040;18.244;2023-06-26T03:41:08;21.20;;;9.80;;
57327;SDS011;43162;51.040;18.244;2023-06-26T03:43:34;18.80;;;8.60;;
57327;SDS011;43162;51.040;18.244;2023-06-26T03:45:59;21.00;;;9.00;;
57327;SDS011;43162;51.040;18.244;2023-06-26T03:48:24;16.30;;;8.00;;
57327;SDS011;43162;51.040;18.244;2023-06-26T03:50:50;13.70;;;8.20;;
57327;SDS011;43162;51.040;18.244;2023-06-26T03:53:16;15.20;;;8.60;;
57327;SDS011;43162;51.040;18.244;2023-06-26T03:55:41;12.70;;;7.60;;
57327;SDS011;43162;51.040;18.244;2023-06-26T03:58:07;11.30;;;8.30;;
57327;SDS011;43162;51.040;18.244;2023-06-26T04:00:32;15.20;;;9.40;;
57327;SDS011;43162;51.040;18.244;2023-06-26T04:02:57;12.60;;;8.90;;
57327;SDS011;43162;51.040;18.244;2023-06-26T04:05:23;16.80;;;7.70;;
57327;SDS011;43162;51.040;18.244;2023-06-26T04:07:52;13.80;;;7.20;;
57327;SDS011;43162;51.040;18.244;2023-06-26T04:10:17;20.30;;;8.20;;
57327;SDS011;43162;51.040;18.244;2023-06-26T04:12:43;18.80;;;7.80;;
57327;SDS011;43162;51.040;18.244;2023-06-26T04:15:09;19.70;;;8.00;;
57327;SDS011;43162;51.040;18.244;2023-06-26T04:17:34;24.00;;;9.00;;
57327;SDS011;43162;51.040;18.244;2023-06-26T04:20:00;21.10;;;8.10;;
57327;SDS011;43162;51.040;18.244;2023-06-26T04:22:25;24.50;;;9.00;;
57327;SDS011;43162;51.040;18.244;2023-06-26T04:24:51;18.30;;;8.00;;
57327;SDS011;43162;51.040;18.244;2023-06-26T04:27:17;23.80;;;9.10;;
57327;SDS011;43162;51.040;18.244;2023-06-26T04:29:43;24.90;;;8.20;;
57327;SDS011;43162;51.040;18.244;2023-06-26T04:32:09;19.70;;;8.10;;
57327;SDS011;43162;51.040;18.244;2023-06-26T04:34:35;16.30;;;8.10;;
57327;SDS011;43162;51.040;18.244;2023-06-26T04:37:02;15.00;;;7.80;;
57327;SDS011;43162;51.040;18.244;2023-06-26T04:39:29;18.50;;;8.90;;
57327;SDS011;43162;51.040;18.244;2023-06-26T04:41:55;11.10;;;7.60;;
57327;SDS011;43162;51.040;18.244;2023-06-26T04:44:21;16.20;;;8.20;;
57327;SDS011;43162;51.040;18.244;2023-06-26T04:46:46;14.60;;;10.40;;
57327;SDS011;43162;51.040;18.244;2023-06-26T04:49:12;9.80;;;8.40;;
57327;SDS011;43162;51.040;18.244;2023-06-26T04:51:37;11.60;;;7.90;;
57327;SDS011;43162;51.040;18.244;2023-06-26T04:54:08;17.60;;;8.80;;
57327;SDS011;43162;51.040;18.244;2023-06-26T04:56:34;14.10;;;7.50;;
57327;SDS011;43162;51.040;18.244;2023-06-26T04:58:59;12.00;;;8.00;;
57327;SDS011;43162;51.040;18.244;2023-06-26T05:01:25;17.60;;;8.60;;
57327;SDS011;43162;51.040;18.244;2023-06-26T05:03:53;12.90;;;7.70;;
57327;SDS011;43162;51.040;18.244;2023-06-26T05:06:19;13.90;;;7.90;;
57327;SDS011;43162;51.040;18.244;2023-06-26T05:08:44;12.30;;;8.80;;
57327;SDS011;43162;51.040;18.244;2023-06-26T05:11:10;11.50;;;8.90;;
57327;SDS011;43162;51.040;18.244;2023-06-26T05:13:35;11.00;;;8.30;;
57327;SDS011;43162;51.040;18.244;2023-06-26T05:16:00;15.40;;;8.60;;
57327;SDS011;43162;51.040;18.244;2023-06-26T05:18:26;10.50;;;8.40;;
57327;SDS011;43162;51.040;18.244;2023-06-26T05:20:52;14.50;;;8.70;;
57327;SDS011;43162;51.040;18.244;2023-06-26T05:23:17;13.30;;;8.10;;
57327;SDS011;43162;51.040;18.244;2023-06-26T05:25:43;13.00;;;9.00;;
57327;SDS011;43162;51.040;18.244;2023-06-26T05:28:09;14.50;;;8.90;;
57327;SDS011;43162;51.040;18.244;2023-06-26T05:30:37;10.40;;;8.60;;
57327;SDS011;43162;51.040;18.244;2023-06-26T05:33:02;10.50;;;8.90;;
57327;SDS011;43162;51.040;18.244;2023-06-26T05:35:29;12.00;;;8.10;;
57327;SDS011;43162;51.040;18.244;2023-06-26T05:37:55;10.10;;;7.70;;
57327;SDS011;43162;51.040;18.244;2023-06-26T05:40:21;10.60;;;8.20;;
57327;SDS011;43162;51.040;18.244;2023-06-26T05:42:47;12.70;;;9.30;;
57327;SDS011;43162;51.040;18.244;2023-06-26T05:45:13;13.60;;;9.00;;
57327;SDS011;43162;51.040;18.244;2023-06-26T05:47:39;12.10;;;8.60;;
57327;SDS011;43162;51.040;18.244;2023-06-26T05:50:05;13.10;;;9.20;;
57327;SDS011;43162;51.040;18.244;2023-06-26T05:52:31;9.30;;;8.00;;
57327;SDS011;43162;51.040;18.244;2023-06-26T05:54:57;10.10;;;8.50;;
57327;SDS011;43162;51.040;18.244;2023-06-26T05:57:26;11.10;;;9.10;;
57327;SDS011;43162;51.040;18.244;2023-06-26T05:59:52;12.80;;;8.40;;
57327;SDS011;43162;51.040;18.244;2023-06-26T06:02:18;10.50;;;7.70;;
57327;SDS011;43162;51.040;18.244;2023-06-26T06:04:43;10.50;;;8.30;;
57327;SDS011;43162;51.040;18.244;2023-06-26T06:07:09;11.00;;;8.90;;
57327;SDS011;43162;51.040;18.244;2023-06-26T06:09:34;12.20;;;8.70;;
57327;SDS011;43162;51.040;18.244;2023-06-26T06:12:00;11.00;;;8.80;;
57327;SDS011;43162;51.040;18.244;2023-06-26T06:14:27;9.40;;;7.60;;
57327;SDS011;43162;51.040;18.244;2023-06-26T06:16:53;13.90;;;7.60;;
57327;SDS011;43162;51.040;18.244;2023-06-26T06:19:19;11.70;;;7.70;;
57327;SDS011;43162;51.040;18.244;2023-06-26T06:21:44;8.70;;;7.00;;
57327;SDS011;43162;51.040;18.244;2023-06-26T06:24:09;10.30;;;7.90;;
57327;SDS011;43162;51.040;18.244;2023-06-26T06:26:35;8.40;;;7.50;;
57327;SDS011;43162;51.040;18.244;2023-06-26T06:29:01;10.70;;;7.60;;
57327;SDS011;43162;51.040;18.244;2023-06-26T06:31:26;8.40;;;7.10;;
57327;SDS011;43162;51.040;18.244;2023-06-26T06:33:54;7.20;;;6.50;;
57327;SDS011;43162;51.040;18.244;2023-06-26T06:36:19;9.10;;;6.30;;
57327;SDS011;43162;51.040;18.244;2023-06-26T06:38:45;10.20;;;6.30;;
57327;SDS011;43162;51.040;18.244;2023-06-26T06:41:11;9.60;;;6.50;;
57327;SDS011;43162;51.040;18.244;2023-06-26T06:43:36;9.50;;;5.30;;
57327;SDS011;43162;51.040;18.244;2023-06-26T06:46:02;9.80;;;6.10;;
57327;SDS011;43162;51.040;18.244;2023-06-26T06:48:27;8.30;;;6.10;;
57327;SDS011;43162;51.040;18.244;2023-06-26T06:50:53;11.50;;;5.60;;
57327;SDS011;43162;51.040;18.244;2023-06-26T06:53:18;8.30;;;5.90;;
57327;SDS011;43162;51.040;18.244;2023-06-26T06:55:46;5.40;;;4.70;;
57327;SDS011;43162;51.040;18.244;2023-06-26T06:58:12;6.10;;;5.00;;
57327;SDS011;43162;51.040;18.244;2023-06-26T07:00:37;9.30;;;5.30;;
57327;SDS011;43162;51.040;18.244;2023-06-26T07:03:03;9.00;;;5.20;;
57327;SDS011;43162;51.040;18.244;2023-06-26T07:05:29;12.00;;;5.70;;
57327;SDS011;43162;51.040;18.244;2023-06-26T07:07:54;5.60;;;5.00;;
57327;SDS011;43162;51.040;18.244;2023-06-26T07:10:20;6.50;;;4.90;;
57327;SDS011;43162;51.040;18.244;2023-06-26T07:12:45;4.70;;;4.20;;
57327;SDS011;43162;51.040;18.244;2023-06-26T07:15:11;6.20;;;4.90;;
57327;SDS011;43162;51.040;18.244;2023-06-26T07:17:36;8.20;;;5.10;;
57327;SDS011;43162;51.040;18.244;2023-06-26T07:20:23;5.90;;;4.40;;
57327;SDS011;43162;51.040;18.244;2023-06-26T07:22:49;6.70;;;4.80;;
57327;SDS011;43162;51.040;18.244;2023-06-26T07:25:14;7.10;;;4.60;;
57327;SDS011;43162;51.040;18.244;2023-06-26T07:27:40;6.20;;;5.10;;
57327;SDS011;43162;51.040;18.244;2023-06-26T07:30:07;9.30;;;5.20;;
57327;SDS011;43162;51.040;18.244;2023-06-26T07:32:35;7.00;;;4.30;;
57327;SDS011;43162;51.040;18.244;2023-06-26T07:35:01;5.40;;;4.20;;
57327;SDS011;43162;51.040;18.244;2023-06-26T07:37:26;9.60;;;4.10;;
57327;SDS011;43162;51.040;18.244;2023-06-26T07:39:53;6.80;;;3.90;;
57327;SDS011;43162;51.040;18.244;2023-06-26T07:42:18;8.40;;;4.20;;
57327;SDS011;43162;51.040;18.244;2023-06-26T07:44:44;5.20;;;3.90;;
57327;SDS011;43162;51.040;18.244;2023-06-26T07:47:09;4.30;;;3.80;;
57327;SDS011;43162;51.040;18.244;2023-06-26T07:49:35;4.70;;;3.70;;
57327;SDS011;43162;51.040;18.244;2023-06-26T07:52:00;3.20;;;2.90;;
57327;SDS011;43162;51.040;18.244;2023-06-26T07:54:26;6.10;;;3.30;;
57327;SDS011;43162;51.040;18.244;2023-06-26T07:56:55;8.10;;;4.40;;
57327;SDS011;43162;51.040;18.244;2023-06-26T07:59:21;4.00;;;3.50;;
57327;SDS011;43162;51.040;18.244;2023-06-26T08:01:48;3.90;;;3.40;;
57327;SDS011;43162;51.040;18.244;2023-06-26T08:04:14;6.50;;;4.10;;
57327;SDS011;43162;51.040;18.244;2023-06-26T08:06:40;9.50;;;4.60;;
57327;SDS011;43162;51.040;18.244;2023-06-26T08:09:06;5.80;;;3.80;;
57327;SDS011;43162;51.040;18.244;2023-06-26T08:11:33;5.70;;;4.00;;
57327;SDS011;43162;51.040;18.244;2023-06-26T08:13:59;6.50;;;5.00;;
57327;SDS011;43162;51.040;18.244;2023-06-26T08:16:24;3.50;;;3.10;;
57327;SDS011;43162;51.040;18.244;2023-06-26T08:18:50;3.40;;;3.10;;
57327;SDS011;43162;51.040;18.244;2023-06-26T08:21:16;4.20;;;3.30;;
57327;SDS011;43162;51.040;18.244;2023-06-26T08:23:41;4.50;;;3.60;;
57327;SDS011;43162;51.040;18.244;2023-06-26T08:26:07;4.90;;;3.30;;
57327;SDS011;43162;51.040;18.244;2023-06-26T08:28:32;8.40;;;3.40;;
57327;SDS011;43162;51.040;18.244;2023-06-26T08:30:58;6.00;;;3.60;;
57327;SDS011;43162;51.040;18.244;2023-06-26T08:33:24;5.00;;;3.40;;
57327;SDS011;43162;51.040;18.244;2023-06-26T08:35:50;5.40;;;3.50;;
57327;SDS011;43162;51.040;18.244;2023-06-26T08:38:15;4.60;;;3.90;;
57327;SDS011;43162;51.040;18.244;2023-06-26T08:40:41;4.20;;;3.30;;
57327;SDS011;43162;51.040;18.244;2023-06-26T08:43:06;7.20;;;3.30;;
57327;SDS011;43162;51.040;18.244;2023-06-26T08:45:32;4.20;;;3.80;;
57327;SDS011;43162;51.040;18.244;2023-06-26T08:47:59;5.50;;;3.60;;
57327;SDS011;43162;51.040;18.244;2023-06-26T08:50:25;8.40;;;3.60;;
57327;SDS011;43162;51.040;18.244;2023-06-26T08:52:54;4.50;;;4.10;;
57327;SDS011;43162;51.040;18.244;2023-06-26T08:55:22;3.60;;;3.20;;
57327;SDS011;43162;51.040;18.244;2023-06-26T08:57:50;9.60;;;3.50;;
57327;SDS011;43162;51.040;18.244;2023-06-26T09:00:16;6.90;;;3.70;;
57327;SDS011;43162;51.040;18.244;2023-06-26T09:02:42;9.50;;;3.50;;
57327;SDS011;43162;51.040;18.244;2023-06-26T09:05:08;4.70;;;3.30;;
57327;SDS011;43162;51.040;18.244;2023-06-26T09:07:34;7.20;;;3.20;;
57327;SDS011;43162;51.040;18.244;2023-06-26T09:09:59;6.90;;;3.10;;
57327;SDS011;43162;51.040;18.244;2023-06-26T09:12:26;3.70;;;3.30;;
57327;SDS011;43162;51.040;18.244;2023-06-26T09:14:52;9.30;;;4.40;;
57327;SDS011;43162;51.040;18.244;2023-06-26T09:17:22;9.20;;;3.40;;
57327;SDS011;43162;51.040;18.244;2023-06-26T09:22:15;6.00;;;3.70;;
57327;SDS011;43162;51.040;18.244;2023-06-26T09:24:41;5.30;;;3.80;;
57327;SDS011;43162;51.040;18.244;2023-06-26T09:27:06;3.90;;;3.60;;
57327;SDS011;43162;51.040;18.244;2023-06-26T09:29:32;3.70;;;3.40;;
57327;SDS011;43162;51.040;18.244;2023-06-26T09:31:59;4.40;;;3.30;;
57327;SDS011;43162;51.040;18.244;2023-06-26T09:34:31;3.70;;;3.40;;
57327;SDS011;43162;51.040;18.244;2023-06-26T09:36:57;3.80;;;3.10;;
57327;SDS011;43162;51.040;18.244;2023-06-26T09:39:23;4.70;;;3.20;;
57327;SDS011;43162;51.040;18.244;2023-06-26T09:41:49;3.30;;;2.80;;
57327;SDS011;43162;51.040;18.244;2023-06-26T09:44:15;5.90;;;3.40;;
57327;SDS011;43162;51.040;18.244;2023-06-26T09:46:40;3.90;;;3.50;;
57327;SDS011;43162;51.040;18.244;2023-06-26T09:51:34;4.60;;;3.30;;
57327;SDS011;43162;51.040;18.244;2023-06-26T09:54:00;8.80;;;3.60;;
57327;SDS011;43162;51.040;18.244;2023-06-26T09:56:27;4.10;;;3.20;;
57327;SDS011;43162;51.040;18.244;2023-06-26T09:58:55;3.60;;;3.00;;
57327;SDS011;43162;51.040;18.244;2023-06-26T10:01:21;6.40;;;3.00;;
57327;SDS011;43162;51.040;18.244;2023-06-26T10:03:46;7.30;;;3.30;;
57327;SDS011;43162;51.040;18.244;2023-06-26T10:06:12;3.50;;;3.20;;
57327;SDS011;43162;51.040;18.244;2023-06-26T10:08:39;7.40;;;3.30;;
57327;SDS011;43162;51.040;18.244;2023-06-26T10:11:04;5.30;;;3.30;;
57327;SDS011;43162;51.040;18.244;2023-06-26T10:13:31;5.80;;;3.10;;
57327;SDS011;43162;51.040;18.244;2023-06-26T10:15:59;4.20;;;3.00;;
57327;SDS011;43162;51.040;18.244;2023-06-26T10:18:25;4.20;;;3.60;;
57327;SDS011;43162;51.040;18.244;2023-06-26T10:20:53;7.30;;;3.70;;
57327;SDS011;43162;51.040;18.244;2023-06-26T10:23:21;6.90;;;3.60;;
57327;SDS011;43162;51.040;18.244;2023-06-26T10:25:48;7.30;;;3.50;;
57327;SDS011;43162;51.040;18.244;2023-06-26T10:28:14;3.80;;;3.40;;
57327;SDS011;43162;51.040;18.244;2023-06-26T10:30:40;4.20;;;3.50;;
57327;SDS011;43162;51.040;18.244;2023-06-26T10:33:06;3.60;;;3.30;;
57327;SDS011;43162;51.040;18.244;2023-06-26T10:35:32;3.60;;;3.00;;
57327;SDS011;43162;51.040;18.244;2023-06-26T10:38:01;4.80;;;3.20;;
57327;SDS011;43162;51.040;18.244;2023-06-26T10:40:30;3.50;;;3.20;;
57327;SDS011;43162;51.040;18.244;2023-06-26T10:43:08;4.50;;;3.20;;
57327;SDS011;43162;51.040;18.244;2023-06-26T10:47:59;6.00;;;3.70;;
57327;SDS011;43162;51.040;18.244;2023-06-26T10:50:26;5.50;;;3.50;;
57327;SDS011;43162;51.040;18.244;2023-06-26T10:53:07;4.40;;;3.50;;
57327;SDS011;43162;51.040;18.244;2023-06-26T10:55:32;7.90;;;3.90;;
57327;SDS011;43162;51.040;18.244;2023-06-26T10:57:58;3.90;;;3.50;;
57327;SDS011;43162;51.040;18.244;2023-06-26T11:00:23;5.70;;;4.00;;
57327;SDS011;43162;51.040;18.244;2023-06-26T11:02:49;3.30;;;3.10;;
57327;SDS011;43162;51.040;18.244;2023-06-26T11:08:03;5.10;;;3.10;;
57327;SDS011;43162;51.040;18.244;2023-06-26T11:10:29;6.00;;;3.20;;
57327;SDS011;43162;51.040;18.244;2023-06-26T11:12:54;4.50;;;3.60;;
57327;SDS011;43162;51.040;18.244;2023-06-26T11:15:24;4.60;;;3.50;;
57327;SDS011;43162;51.040;18.244;2023-06-26T11:17:49;3.40;;;3.10;;
57327;SDS011;43162;51.040;18.244;2023-06-26T11:20:15;5.80;;;3.70;;
57327;SDS011;43162;51.040;18.244;2023-06-26T11:22:42;3.50;;;3.20;;
57327;SDS011;43162;51.040;18.244;2023-06-26T11:25:08;6.00;;;3.60;;
57327;SDS011;43162;51.040;18.244;2023-06-26T11:30:06;6.30;;;3.00;;
57327;SDS011;43162;51.040;18.244;2023-06-26T11:32:31;5.60;;;3.80;;
57327;SDS011;43162;51.040;18.244;2023-06-26T11:35:00;3.90;;;3.40;;
57327;SDS011;43162;51.040;18.244;2023-06-26T11:37:26;4.60;;;3.10;;
57327;SDS011;43162;51.040;18.244;2023-06-26T11:39:51;4.10;;;3.50;;
57327;SDS011;43162;51.040;18.244;2023-06-26T11:42:17;4.30;;;3.40;;
57327;SDS011;43162;51.040;18.244;2023-06-26T11:44:43;4.30;;;3.20;;
57327;SDS011;43162;51.040;18.244;2023-06-26T11:47:12;8.60;;;3.40;;
57327;SDS011;43162;51.040;18.244;2023-06-26T11:49:39;3.70;;;3.30;;
57327;SDS011;43162;51.040;18.244;2023-06-26T11:52:07;4.20;;;3.20;;
57327;SDS011;43162;51.040;18.244;2023-06-26T11:54:51;5.60;;;3.30;;
57327;SDS011;43162;51.040;18.244;2023-06-26T11:57:16;4.70;;;3.60;;
57327;SDS011;43162;51.040;18.244;2023-06-26T11:59:42;4.20;;;3.40;;
57327;SDS011;43162;51.040;18.244;2023-06-26T12:02:09;7.40;;;3.90;;
57327;SDS011;43162;51.040;18.244;2023-06-26T12:04:38;10.00;;;3.10;;
57327;SDS011;43162;51.040;18.244;2023-06-26T12:07:05;5.50;;;3.60;;
57327;SDS011;43162;51.040;18.244;2023-06-26T12:09:33;4.10;;;3.50;;
57327;SDS011;43162;51.040;18.244;2023-06-26T12:11:59;4.30;;;3.90;;
57327;SDS011;43162;51.040;18.244;2023-06-26T12:14:25;4.80;;;3.30;;
57327;SDS011;43162;51.040;18.244;2023-06-26T12:16:53;4.80;;;3.10;;
57327;SDS011;43162;51.040;18.244;2023-06-26T12:19:23;6.00;;;3.80;;
57327;SDS011;43162;51.040;18.244;2023-06-26T12:21:49;3.90;;;3.60;;
57327;SDS011;43162;51.040;18.244;2023-06-26T12:24:19;7.50;;;3.50;;
57327;SDS011;43162;51.040;18.244;2023-06-26T12:26:45;4.70;;;3.30;;
57327;SDS011;43162;51.040;18.244;2023-06-26T12:29:12;4.30;;;3.10;;
57327;SDS011;43162;51.040;18.244;2023-06-26T12:31:41;3.90;;;3.20;;
57327;SDS011;43162;51.040;18.244;2023-06-26T12:34:08;4.60;;;3.50;;
57327;SDS011;43162;51.040;18.244;2023-06-26T12:36:44;3.90;;;3.50;;
57327;SDS011;43162;51.040;18.244;2023-06-26T12:39:11;3.30;;;2.70;;
57327;SDS011;43162;51.040;18.244;2023-06-26T12:41:44;3.70;;;3.10;;
57327;SDS011;43162;51.040;18.244;2023-06-26T12:44:19;3.50;;;3.20;;
57327;SDS011;43162;51.040;18.244;2023-06-26T12:46:49;5.60;;;3.40;;
57327;SDS011;43162;51.040;18.244;2023-06-26T12:49:15;4.00;;;3.20;;
57327;SDS011;43162;51.040;18.244;2023-06-26T12:51:40;4.90;;;3.30;;
57327;SDS011;43162;51.040;18.244;2023-06-26T12:54:08;4.00;;;3.60;;
57327;SDS011;43162;51.040;18.244;2023-06-26T12:56:33;3.80;;;3.10;;
57327;SDS011;43162;51.040;18.244;2023-06-26T12:58:59;4.80;;;3.00;;
57327;SDS011;43162;51.040;18.244;2023-06-26T13:01:26;7.00;;;3.10;;
57327;SDS011;43162;51.040;18.244;2023-06-26T13:03:53;7.70;;;3.70;;
57327;SDS011;43162;51.040;18.244;2023-06-26T13:06:18;3.20;;;2.90;;
57327;SDS011;43162;51.040;18.244;2023-06-26T13:08:44;4.80;;;3.30;;
57327;SDS011;43162;51.040;18.244;2023-06-26T13:11:10;3.40;;;3.00;;
57327;SDS011;43162;51.040;18.244;2023-06-26T13:13:35;3.10;;;2.80;;
57327;SDS011;43162;51.040;18.244;2023-06-26T13:16:01;9.10;;;3.20;;
57327;SDS011;43162;51.040;18.244;2023-06-26T13:18:27;4.70;;;3.00;;
57327;SDS011;43162;51.040;18.244;2023-06-26T13:20:53;9.60;;;3.40;;
57327;SDS011;43162;51.040;18.244;2023-06-26T13:23:18;3.60;;;2.80;;
57327;SDS011;43162;51.040;18.244;2023-06-26T13:25:44;3.90;;;2.90;;
57327;SDS011;43162;51.040;18.244;2023-06-26T13:28:10;6.90;;;2.90;;
57327;SDS011;43162;51.040;18.244;2023-06-26T13:30:35;7.70;;;2.90;;
57327;SDS011;43162;51.040;18.244;2023-06-26T13:33:01;2.80;;;2.60;;
57327;SDS011;43162;51.040;18.244;2023-06-26T13:35:26;4.20;;;2.80;;
57327;SDS011;43162;51.040;18.244;2023-06-26T13:37:52;4.00;;;3.00;;
57327;SDS011;43162;51.040;18.244;2023-06-26T13:40:17;6.40;;;2.40;;
57327;SDS011;43162;51.040;18.244;2023-06-26T13:42:43;3.10;;;2.90;;
57327;SDS011;43162;51.040;18.244;2023-06-26T13:45:09;3.50;;;2.90;;
57327;SDS011;43162;51.040;18.244;2023-06-26T13:47:35;26.20;;;4.40;;
57327;SDS011;43162;51.040;18.244;2023-06-26T13:50:03;12.80;;;3.50;;
57327;SDS011;43162;51.040;18.244;2023-06-26T13:52:29;4.80;;;2.70;;
57327;SDS011;43162;51.040;18.244;2023-06-26T13:54:54;12.40;;;3.10;;
57327;SDS011;43162;51.040;18.244;2023-06-26T13:57:20;2.60;;;2.40;;
57327;SDS011;43162;51.040;18.244;2023-06-26T13:59:47;4.90;;;2.70;;
57327;SDS011;43162;51.040;18.244;2023-06-26T14:02:13;7.80;;;3.60;;
57327;SDS011;43162;51.040;18.244;2023-06-26T14:04:39;7.90;;;3.30;;
57327;SDS011;43162;51.040;18.244;2023-06-26T14:07:05;5.10;;;2.30;;
57327;SDS011;43162;51.040;18.244;2023-06-26T14:09:31;5.10;;;3.10;;
57327;SDS011;43162;51.040;18.244;2023-06-26T14:11:56;5.10;;;3.20;;
57327;SDS011;43162;51.040;18.244;2023-06-26T14:14:22;9.80;;;2.60;;
57327;SDS011;43162;51.040;18.244;2023-06-26T14:16:47;17.40;;;3.50;;
57327;SDS011;43162;51.040;18.244;2023-06-26T14:19:14;2.70;;;2.50;;
57327;SDS011;43162;51.040;18.244;2023-06-26T14:21:43;4.70;;;3.40;;
57327;SDS011;43162;51.040;18.244;2023-06-26T14:24:08;2.80;;;2.50;;
57327;SDS011;43162;51.040;18.244;2023-06-26T14:26:34;3.00;;;2.70;;
57327;SDS011;43162;51.040;18.244;2023-06-26T14:29:00;3.70;;;2.40;;
57327;SDS011;43162;51.040;18.244;2023-06-26T14:31:26;6.70;;;2.30;;
57327;SDS011;43162;51.040;18.244;2023-06-26T14:33:51;2.80;;;2.50;;
57327;SDS011;43162;51.040;18.244;2023-06-26T14:36:17;3.70;;;2.60;;
57327;SDS011;43162;51.040;18.244;2023-06-26T14:38:44;2.70;;;2.50;;
57327;SDS011;43162;51.040;18.244;2023-06-26T14:41:10;3.50;;;2.90;;